Zenith Leader — 2ACU6 — position and weather

sailwx.info

Track history (hours):
 
Tides and Currents Weather Stations Pressure Air Temp Water Temp Dewpoint Dewpoint Depression Visibility Wind Speed Wind Dir Waves Ship Positions

Zenith Leader

Last reported at 2017-Mar-19 18:33 UTC. Time now 2017-Mar-23 20:13 UTC.
Position N 48°00' W 007°47'.

Length 200 m; draft 9.2 m.

Type: Cargo ship. MMSI: 235058697.

Date/timePositionNaut miles runAvg speedWind from/ knotsBaromVisibWave heightAir tempDewpointWater temp
2017-Mar-19 18:33N 48°00' W 007°47'4513.9
2017-Mar-19 15:20N 48°22' W 006°49'3014.9
2017-Mar-19 13:19N 48°42' W 006°14'1815.0
2017-Mar-19 12:07N 48°52' W 005°53'1315.2
2017-Mar-19 11:17N 48°60' W 005°36'1115.1
2017-Mar-19 10:32N 49°05' W 005°21'1513.1
2017-Mar-19 09:22N 49°13' W 005°01'1010.3
2017-Mar-19 08:26N 49°19' W 004°50'1313.2
2017-Mar-19 07:26N 49°28' W 004°35'1214.0
2017-Mar-19 06:33N 49°37' W 004°22'1614.5
2017-Mar-19 05:28N 49°47' W 004°04'1415.3
2017-Mar-19 04:33N 49°57' W 003°48'1615.6
2017-Mar-19 03:33N 50°08' W 003°30'1514.8
2017-Mar-19 02:33N 50°22' W 003°25'7 7.3
2017-Mar-19 01:34N 50°26' W 003°16'1414.1
2017-Mar-19 00:33N 50°25' W 002°53'1313.4
2017-Mar-18 23:33N 50°25' W 002°32'2512.4
2017-Mar-18 21:33N 50°25' W 001°53'1413.6
2017-Mar-18 20:33N 50°25' W 001°32'1515.0
2017-Mar-18 19:33N 50°26' W 001°08'1616.0
2017-Mar-18 18:34N 50°27' W 000°43'1616.1
2017-Mar-18 17:33N 50°29' W 000°18'1615.4
2017-Mar-18 16:30N 50°33' E 000°06'1414.7
2017-Mar-18 15:33N 50°36' E 000°28'1413.9
2017-Mar-18 14:34N 50°42' E 000°47'1413.5
2017-Mar-18 13:33N 50°51' E 001°04'1414.1
2017-Mar-18 12:33N 51°00' E 001°21'1616.2
2017-Mar-18 11:34N 51°10' E 001°41'1717.2
2017-Mar-18 10:33N 51°24' E 001°57'1615.9
2017-Mar-18 09:33N 51°36' E 002°14'10214.0
2017-Mar-18 02:18N 52°56' E 003°57'1114.6
2017-Mar-18 01:33N 53°02' E 004°11'1414.3
2017-Mar-18 00:33N 53°13' E 004°26'7410.5
2017-Mar-17 17:31N 53°37' E 006°23'1212.3
2017-Mar-17 16:34N 53°33' E 006°42'1212.2
2017-Mar-17 15:33N 53°24' E 006°57'8 8.4
2017-Mar-17 14:33N 53°20' E 007°09'1 0.6
2017-Mar-17 13:33N 53°20' E 007°10'0 0.0
2017-Mar-17 12:33N 53°20' E 007°10'0 0.0
2017-Mar-17 11:33N 53°20' E 007°10'0 0.0
2017-Mar-17 10:34N 53°20' E 007°10'0 0.0
2017-Mar-17 09:33N 53°20' E 007°10'0 0.0
2017-Mar-16 12:25N 53°20' E 007°10'245 5.1
2017-Mar-14 12:17N 55°37' E 012°60'0 0.1
2017-Mar-14 11:30N 55°37' E 012°60'0 0.0
2017-Mar-14 10:33N 55°37' E 012°60'0 0.0
2017-Mar-14 09:33N 55°37' E 012°60'0 0.0
2017-Mar-14 08:33N 55°37' E 012°60'0 0.0
2017-Mar-14 07:33N 55°37' E 012°60'0 0.0
2017-Mar-14 06:33N 55°37' E 012°60'0 0.0
2017-Mar-14 05:33N 55°37' E 012°60'0 0.0
2017-Mar-14 04:33N 55°37' E 012°60'0 0.0
2017-Mar-14 03:33N 55°37' E 012°60'0 0.0
2017-Mar-14 02:33N 55°37' E 012°60'0 0.0
2017-Mar-14 01:33N 55°37' E 012°60'0 0.0
2017-Mar-14 00:33N 55°37' E 012°60'0 0.0
2017-Mar-13 23:33N 55°37' E 012°60'0 0.0
2017-Mar-13 22:33N 55°37' E 012°60'0 0.0
2017-Mar-13 21:33N 55°37' E 012°60'0 0.0
2017-Mar-13 20:33N 55°37' E 012°60'0 0.0
2017-Mar-13 19:33N 55°37' E 012°60'0 0.0
2017-Mar-13 18:30N 55°37' E 012°60'0 0.0
2017-Mar-13 17:33N 55°37' E 012°60'0 0.0
2017-Mar-13 16:33N 55°37' E 012°60'0 0.0
2017-Mar-13 15:33N 55°37' E 012°60'0 0.0
2017-Mar-13 14:33N 55°37' E 012°60'0 0.0
2017-Mar-13 13:33N 55°37' E 012°60'0 0.0
2017-Mar-13 12:33N 55°37' E 012°60'0 0.0
2017-Mar-13 11:33N 55°37' E 012°60'0 0.0
2017-Mar-13 10:33N 55°37' E 012°60'0 0.0
2017-Mar-13 09:33N 55°37' E 012°60'0 0.0
2017-Mar-13 08:33N 55°37' E 012°60'0 0.0
2017-Mar-13 07:33N 55°37' E 012°60'0 0.0
2017-Mar-13 06:33N 55°37' E 012°60'0 0.0
2017-Mar-13 05:33N 55°37' E 012°60'0 0.0
2017-Mar-13 04:33N 55°37' E 012°60'0 0.0
2017-Mar-13 03:33N 55°37' E 012°60'0 0.0
2017-Mar-13 02:33N 55°37' E 012°60'0 0.0
2017-Mar-13 01:33N 55°37' E 012°60'0 0.0
2017-Mar-13 00:33N 55°37' E 012°60'0 0.0
2017-Mar-12 23:33N 55°37' E 012°60'0 0.0
2017-Mar-12 22:33N 55°37' E 012°60'0 0.0
2017-Mar-12 21:33N 55°37' E 012°60'0 0.0
2017-Mar-12 20:33N 55°37' E 012°60'0 0.0
2017-Mar-12 19:33N 55°37' E 012°60'0 0.0
2017-Mar-12 18:33N 55°37' E 012°60'1 1.1
2017-Mar-12 17:33N 55°38' E 012°58'9 8.5
2017-Mar-12 16:33N 55°46' E 012°52'1312.6
2017-Mar-12 15:33N 55°57' E 012°42'1211.5
2017-Mar-12 14:33N 56°07' E 012°31'1010.3
2017-Mar-12 13:33N 56°13' E 012°16'1414.4
2017-Mar-12 12:33N 56°24' E 012°01'1615.7
2017-Mar-12 11:33N 56°40' E 011°54'1616.0
2017-Mar-12 10:32N 56°55' E 011°45'1615.7
2017-Mar-12 09:31N 57°11' E 011°37'1515.7
2017-Mar-12 08:33N 57°25' E 011°32'1212.4
2017-Mar-12 07:33N 57°38' E 011°28'1211.8
2017-Mar-12 06:33N 57°43' E 011°08'1414.5
2017-Mar-12 05:33N 57°48' E 010°43'1818.5
2017-Mar-12 04:33N 57°50' E 010°09'1918.6
2017-Mar-12 03:33N 57°47' E 009°34'1919.2
2017-Mar-12 02:33N 57°36' E 009°05'13518.5
2017-Mar-11 19:14N 55°46' E 006°42'1419.0
2017-Mar-11 18:28N 55°33' E 006°29'11118.7
2017-Mar-11 12:31N 53°54' E 005°01'1818.3
2017-Mar-11 11:33N 53°38' E 004°50'1817.9
2017-Mar-11 10:33N 53°22' E 004°38'1817.9
2017-Mar-11 09:33N 53°05' E 004°25'1817.6
2017-Mar-11 08:33N 52°50' E 004°12'1717.4
2017-Mar-11 07:33N 52°36' E 003°55'1717.4
2017-Mar-11 06:33N 52°24' E 003°34'1818.2
2017-Mar-11 05:33N 52°11' E 003°12'2118.8
2017-Mar-11 04:25N 51°55' E 002°51'1819.3
2017-Mar-11 03:30N 51°38' E 002°43'1616.4
2017-Mar-11 02:33N 51°22' E 002°46'1211.8
2017-Mar-11 01:33N 51°25' E 003°04'7 7.1
2017-Mar-11 00:33N 51°20' E 003°13'2 2.2
2017-Mar-10 23:33N 51°18' E 003°14'0 0.0
2017-Mar-10 22:33N 51°18' E 003°14'0 0.0
2017-Mar-10 21:33N 51°18' E 003°14'0 0.0
2017-Mar-10 20:33N 51°18' E 003°14'0 0.0
2017-Mar-10 19:33N 51°18' E 003°14'0 0.0
2017-Mar-10 18:33N 51°18' E 003°14'0 0.0
2017-Mar-10 17:33N 51°18' E 003°14'0 0.0
2017-Mar-10 16:33N 51°18' E 003°14'0 0.0
2017-Mar-10 15:33N 51°18' E 003°14'0 0.0
2017-Mar-10 14:33N 51°18' E 003°14'0 0.0
2017-Mar-10 13:33N 51°18' E 003°14'0 0.0
2017-Mar-10 12:33N 51°18' E 003°14'0 0.0
2017-Mar-10 11:33N 51°18' E 003°14'0 0.0
2017-Mar-10 10:33N 51°18' E 003°14'0 0.0
2017-Mar-10 09:33N 51°18' E 003°14'0 0.0
2017-Mar-10 08:33N 51°18' E 003°14'0 0.0
2017-Mar-10 07:33N 51°18' E 003°14'0 0.0
2017-Mar-10 06:33N 51°18' E 003°14'0 0.0
2017-Mar-10 05:33N 51°18' E 003°14'0 0.0
2017-Mar-10 04:33N 51°18' E 003°14'0 0.0
2017-Mar-10 03:33N 51°18' E 003°14'0 0.0
2017-Mar-10 02:33N 51°18' E 003°14'0 0.0
2017-Mar-10 01:33N 51°18' E 003°14'2 2.0
2017-Mar-10 00:33N 51°20' E 003°13'1 1.4
2017-Mar-09 23:33N 51°21' E 003°12'1110.7
2017-Mar-09 22:33N 51°22' E 002°55'10 9.6
2017-Mar-09 21:33N 51°21' E 002°40'7 7.4
2017-Mar-09 20:33N 51°21' E 002°28'1110.8
2017-Mar-09 19:33N 51°16' E 002°13'1111.4
2017-Mar-09 18:33N 51°11' E 001°57'  
Track history (hours):
 
Tides and Currents Weather Stations Pressure Air Temp Water Temp Dewpoint Dewpoint Depression Visibility Wind Speed Wind Dir Waves Ship Positions

Zenith Leader

Last reported at 2017-Mar-19 18:33 UTC. Time now 2017-Mar-23 20:13 UTC.
Position N 48°00' W 007°47'.

Length 200 m; draft 9.2 m.

Type: Cargo ship. MMSI: 235058697.

Date/timePositionNaut miles runAvg speedWind from/ knotsBaromVisibWave heightAir tempDewpointWater temp
2017-Mar-19 18:33N 48°00' W 007°47'4513.9
2017-Mar-19 15:20N 48°22' W 006°49'3014.9
2017-Mar-19 13:19N 48°42' W 006°14'1815.0
2017-Mar-19 12:07N 48°52' W 005°53'1315.2
2017-Mar-19 11:17N 48°60' W 005°36'1115.1
2017-Mar-19 10:32N 49°05' W 005°21'1513.1
2017-Mar-19 09:22N 49°13' W 005°01'1010.3
2017-Mar-19 08:26N 49°19' W 004°50'1313.2
2017-Mar-19 07:26N 49°28' W 004°35'1214.0
2017-Mar-19 06:33N 49°37' W 004°22'1614.5
2017-Mar-19 05:28N 49°47' W 004°04'1415.3
2017-Mar-19 04:33N 49°57' W 003°48'1615.6
2017-Mar-19 03:33N 50°08' W 003°30'1514.8
2017-Mar-19 02:33N 50°22' W 003°25'7 7.3
2017-Mar-19 01:34N 50°26' W 003°16'1414.1
2017-Mar-19 00:33N 50°25' W 002°53'1313.4
2017-Mar-18 23:33N 50°25' W 002°32'2512.4
2017-Mar-18 21:33N 50°25' W 001°53'1413.6
2017-Mar-18 20:33N 50°25' W 001°32'1515.0
2017-Mar-18 19:33N 50°26' W 001°08'1616.0
2017-Mar-18 18:34N 50°27' W 000°43'1616.1
2017-Mar-18 17:33N 50°29' W 000°18'1615.4
2017-Mar-18 16:30N 50°33' E 000°06'1414.7
2017-Mar-18 15:33N 50°36' E 000°28'1413.9
2017-Mar-18 14:34N 50°42' E 000°47'1413.5
2017-Mar-18 13:33N 50°51' E 001°04'1414.1
2017-Mar-18 12:33N 51°00' E 001°21'1616.2
2017-Mar-18 11:34N 51°10' E 001°41'1717.2
2017-Mar-18 10:33N 51°24' E 001°57'1615.9
2017-Mar-18 09:33N 51°36' E 002°14'10214.0
2017-Mar-18 02:18N 52°56' E 003°57'1114.6
2017-Mar-18 01:33N 53°02' E 004°11'1414.3
2017-Mar-18 00:33N 53°13' E 004°26'7410.5
2017-Mar-17 17:31N 53°37' E 006°23'1212.3
2017-Mar-17 16:34N 53°33' E 006°42'1212.2
2017-Mar-17 15:33N 53°24' E 006°57'8 8.4
2017-Mar-17 14:33N 53°20' E 007°09'1 0.6
2017-Mar-17 13:33N 53°20' E 007°10'0 0.0
2017-Mar-17 12:33N 53°20' E 007°10'0 0.0
2017-Mar-17 11:33N 53°20' E 007°10'0 0.0
2017-Mar-17 10:34N 53°20' E 007°10'0 0.0
2017-Mar-17 09:33N 53°20' E 007°10'0 0.0
2017-Mar-16 12:25N 53°20' E 007°10'245 5.1
2017-Mar-14 12:17N 55°37' E 012°60'0 0.1
2017-Mar-14 11:30N 55°37' E 012°60'0 0.0
2017-Mar-14 10:33N 55°37' E 012°60'0 0.0
2017-Mar-14 09:33N 55°37' E 012°60'0 0.0
2017-Mar-14 08:33N 55°37' E 012°60'0 0.0
2017-Mar-14 07:33N 55°37' E 012°60'0 0.0
2017-Mar-14 06:33N 55°37' E 012°60'0 0.0
2017-Mar-14 05:33N 55°37' E 012°60'0 0.0
2017-Mar-14 04:33N 55°37' E 012°60'0 0.0
2017-Mar-14 03:33N 55°37' E 012°60'0 0.0
2017-Mar-14 02:33N 55°37' E 012°60'0 0.0
2017-Mar-14 01:33N 55°37' E 012°60'0 0.0
2017-Mar-14 00:33N 55°37' E 012°60'0 0.0
2017-Mar-13 23:33N 55°37' E 012°60'0 0.0
2017-Mar-13 22:33N 55°37' E 012°60'0 0.0
2017-Mar-13 21:33N 55°37' E 012°60'0 0.0
2017-Mar-13 20:33N 55°37' E 012°60'0 0.0
2017-Mar-13 19:33N 55°37' E 012°60'0 0.0
2017-Mar-13 18:30N 55°37' E 012°60'0 0.0
2017-Mar-13 17:33N 55°37' E 012°60'0 0.0
2017-Mar-13 16:33N 55°37' E 012°60'0 0.0
2017-Mar-13 15:33N 55°37' E 012°60'0 0.0
2017-Mar-13 14:33N 55°37' E 012°60'0 0.0
2017-Mar-13 13:33N 55°37' E 012°60'0 0.0
2017-Mar-13 12:33N 55°37' E 012°60'0 0.0
2017-Mar-13 11:33N 55°37' E 012°60'0 0.0
2017-Mar-13 10:33N 55°37' E 012°60'0 0.0
2017-Mar-13 09:33N 55°37' E 012°60'0 0.0
2017-Mar-13 08:33N 55°37' E 012°60'0 0.0
2017-Mar-13 07:33N 55°37' E 012°60'0 0.0
2017-Mar-13 06:33N 55°37' E 012°60'0 0.0
2017-Mar-13 05:33N 55°37' E 012°60'0 0.0
2017-Mar-13 04:33N 55°37' E 012°60'0 0.0
2017-Mar-13 03:33N 55°37' E 012°60'0 0.0
2017-Mar-13 02:33N 55°37' E 012°60'0 0.0
2017-Mar-13 01:33N 55°37' E 012°60'0 0.0
2017-Mar-13 00:33N 55°37' E 012°60'0 0.0
2017-Mar-12 23:33N 55°37' E 012°60'0 0.0
2017-Mar-12 22:33N 55°37' E 012°60'0 0.0
2017-Mar-12 21:33N 55°37' E 012°60'0 0.0
2017-Mar-12 20:33N 55°37' E 012°60'0 0.0
2017-Mar-12 19:33N 55°37' E 012°60'0 0.0
2017-Mar-12 18:33N 55°37' E 012°60'1 1.1
2017-Mar-12 17:33N 55°38' E 012°58'9 8.5
2017-Mar-12 16:33N 55°46' E 012°52'1312.6
2017-Mar-12 15:33N 55°57' E 012°42'1211.5
2017-Mar-12 14:33N 56°07' E 012°31'1010.3
2017-Mar-12 13:33N 56°13' E 012°16'1414.4
2017-Mar-12 12:33N 56°24' E 012°01'1615.7
2017-Mar-12 11:33N 56°40' E 011°54'1616.0
2017-Mar-12 10:32N 56°55' E 011°45'1615.7
2017-Mar-12 09:31N 57°11' E 011°37'1515.7
2017-Mar-12 08:33N 57°25' E 011°32'1212.4
2017-Mar-12 07:33N 57°38' E 011°28'1211.8
2017-Mar-12 06:33N 57°43' E 011°08'1414.5
2017-Mar-12 05:33N 57°48' E 010°43'1818.5
2017-Mar-12 04:33N 57°50' E 010°09'1918.6
2017-Mar-12 03:33N 57°47' E 009°34'1919.2
2017-Mar-12 02:33N 57°36' E 009°05'13518.5
2017-Mar-11 19:14N 55°46' E 006°42'1419.0
2017-Mar-11 18:28N 55°33' E 006°29'11118.7
2017-Mar-11 12:31N 53°54' E 005°01'1818.3
2017-Mar-11 11:33N 53°38' E 004°50'1817.9
2017-Mar-11 10:33N 53°22' E 004°38'1817.9
2017-Mar-11 09:33N 53°05' E 004°25'1817.6
2017-Mar-11 08:33N 52°50' E 004°12'1717.4
2017-Mar-11 07:33N 52°36' E 003°55'1717.4
2017-Mar-11 06:33N 52°24' E 003°34'1818.2
2017-Mar-11 05:33N 52°11' E 003°12'2118.8
2017-Mar-11 04:25N 51°55' E 002°51'1819.3
2017-Mar-11 03:30N 51°38' E 002°43'1616.4
2017-Mar-11 02:33N 51°22' E 002°46'1211.8
2017-Mar-11 01:33N 51°25' E 003°04'7 7.1
2017-Mar-11 00:33N 51°20' E 003°13'2 2.2
2017-Mar-10 23:33N 51°18' E 003°14'0 0.0
2017-Mar-10 22:33N 51°18' E 003°14'0 0.0
2017-Mar-10 21:33N 51°18' E 003°14'0 0.0
2017-Mar-10 20:33N 51°18' E 003°14'0 0.0
2017-Mar-10 19:33N 51°18' E 003°14'0 0.0
2017-Mar-10 18:33N 51°18' E 003°14'0 0.0
2017-Mar-10 17:33N 51°18' E 003°14'0 0.0
2017-Mar-10 16:33N 51°18' E 003°14'0 0.0
2017-Mar-10 15:33N 51°18' E 003°14'0 0.0
2017-Mar-10 14:33N 51°18' E 003°14'0 0.0
2017-Mar-10 13:33N 51°18' E 003°14'0 0.0
2017-Mar-10 12:33N 51°18' E 003°14'0 0.0
2017-Mar-10 11:33N 51°18' E 003°14'0 0.0
2017-Mar-10 10:33N 51°18' E 003°14'0 0.0
2017-Mar-10 09:33N 51°18' E 003°14'0 0.0
2017-Mar-10 08:33N 51°18' E 003°14'0 0.0
2017-Mar-10 07:33N 51°18' E 003°14'0 0.0
2017-Mar-10 06:33N 51°18' E 003°14'0 0.0
2017-Mar-10 05:33N 51°18' E 003°14'0 0.0
2017-Mar-10 04:33N 51°18' E 003°14'0 0.0
2017-Mar-10 03:33N 51°18' E 003°14'0 0.0
2017-Mar-10 02:33N 51°18' E 003°14'0 0.0
2017-Mar-10 01:33N 51°18' E 003°14'2 2.0
2017-Mar-10 00:33N 51°20' E 003°13'1 1.4
2017-Mar-09 23:33N 51°21' E 003°12'1110.7
2017-Mar-09 22:33N 51°22' E 002°55'10 9.6
2017-Mar-09 21:33N 51°21' E 002°40'7 7.4
2017-Mar-09 20:33N 51°21' E 002°28'1110.8
2017-Mar-09 19:33N 51°16' E 002°13'1111.4
2017-Mar-09 18:33N 51°11' E 001°57'  

Dump ship's entire track history